sensor_id;sensor_type;location;lat;lon;timestamp;P1;P2;P0
74434;PMS7003;62867;52.038;29.256;2022-10-16T00:04:13;20.6;18.4;11.6
74434;PMS7003;62867;52.038;29.256;2022-10-16T00:09:15;22.8;19.4;11.8
74434;PMS7003;62867;52.038;29.256;2022-10-16T00:14:09;22.2;19;11.6
74434;PMS7003;62867;52.038;29.256;2022-10-16T00:19:15;19.6;17.6;11.2
74434;PMS7003;62867;52.038;29.256;2022-10-16T00:23:43;22.8;18;12.2
74434;PMS7003;62867;52.038;29.256;2022-10-16T00:28:57;28.2;20.4;12.8
74434;PMS7003;62867;52.038;29.256;2022-10-16T00:33:43;27;22.2;13
74434;PMS7003;62867;52.038;29.256;2022-10-16T00:39:21;26.8;19.8;12.5
74434;PMS7003;62867;52.038;29.256;2022-10-16T00:44:55;26.2;21.6;13.4
74434;PMS7003;62867;52.038;29.256;2022-10-16T00:48:45;24;21.6;13.4
74434;PMS7003;62867;52.038;29.256;2022-10-16T00:54:06;28.6;21.4;13.6
74434;PMS7003;62867;52.038;29.256;2022-10-16T00:59:26;27.2;22.8;14.2
74434;PMS7003;62867;52.038;29.256;2022-10-16T01:04:23;27.6;22.8;14.2
74434;PMS7003;62867;52.038;29.256;2022-10-16T01:09:09;26.2;22.8;14.2
74434;PMS7003;62867;52.038;29.256;2022-10-16T01:14:25;30;23.6;14.2
74434;PMS7003;62867;52.038;29.256;2022-10-16T01:18:57;33.8;25.2;15.8
74434;PMS7003;62867;52.038;29.256;2022-10-16T01:23:45;29.6;24.8;14.8
74434;PMS7003;62867;52.038;29.256;2022-10-16T01:29:16;33;26;15.6
74434;PMS7003;62867;52.038;29.256;2022-10-16T01:34:11;30.2;24.4;14.8
74434;PMS7003;62867;52.038;29.256;2022-10-16T01:39:18;32.3;27.3;15.5
74434;PMS7003;62867;52.038;29.256;2022-10-16T01:44:20;31.8;25.4;15.2
74434;PMS7003;62867;52.038;29.256;2022-10-16T01:49:08;33.6;27;15.4
74434;PMS7003;62867;52.038;29.256;2022-10-16T01:54:25;34.4;26;16.8
74434;PMS7003;62867;52.038;29.256;2022-10-16T01:59:18;32.8;27.8;17.4
74434;PMS7003;62867;52.038;29.256;2022-10-16T02:03:43;33.2;26.2;16.6
74434;PMS7003;62867;52.038;29.256;2022-10-16T02:08:53;32.8;29;17
74434;PMS7003;62867;52.038;29.256;2022-10-16T02:13:50;35.6;28.4;16.2
74434;PMS7003;62867;52.038;29.256;2022-10-16T02:19:23;32.4;26.4;17
74434;PMS7003;62867;52.038;29.256;2022-10-16T02:24:05;38.6;30;19
74434;PMS7003;62867;52.038;29.256;2022-10-16T02:29:24;41.6;32;19.4
74434;PMS7003;62867;52.038;29.256;2022-10-16T02:34:13;37;29.2;18
74434;PMS7003;62867;52.038;29.256;2022-10-16T02:39:18;35.3;28.8;17.5
74434;PMS7003;62867;52.038;29.256;2022-10-16T02:44:06;33.8;29.2;18.4
74434;PMS7003;62867;52.038;29.256;2022-10-16T02:49:07;38.2;31.4;18.6
74434;PMS7003;62867;52.038;29.256;2022-10-16T02:54:07;36;29.8;18.6
74434;PMS7003;62867;52.038;29.256;2022-10-16T02:58:55;34.2;30;18.8
74434;PMS7003;62867;52.038;29.256;2022-10-16T03:03:43;36.4;29.4;18
74434;PMS7003;62867;52.038;29.256;2022-10-16T03:09:05;37.2;29.6;17.6
74434;PMS7003;62867;52.038;29.256;2022-10-16T03:14:29;37;29.8;18.6
74434;PMS7003;62867;52.038;29.256;2022-10-16T03:19:15;38.8;30.4;18.6
74434;PMS7003;62867;52.038;29.256;2022-10-16T03:24:05;38.4;32.8;19
74434;PMS7003;62867;52.038;29.256;2022-10-16T03:28:57;40.4;30.8;18.4
74434;PMS7003;62867;52.038;29.256;2022-10-16T03:34:29;38.2;31.8;18.4
74434;PMS7003;62867;52.038;29.256;2022-10-16T03:39:27;38.5;31.5;19
74434;PMS7003;62867;52.038;29.256;2022-10-16T03:44:07;38.4;31.2;18.4
74434;PMS7003;62867;52.038;29.256;2022-10-16T03:48:43;38;30.4;18.6
74434;PMS7003;62867;52.038;29.256;2022-10-16T03:53:52;37.6;30.8;18.6
74434;PMS7003;62867;52.038;29.256;2022-10-16T03:59:19;40.4;33;20.2
74434;PMS7003;62867;52.038;29.256;2022-10-16T04:03:57;40;30.8;18.6
74434;PMS7003;62867;52.038;29.256;2022-10-16T04:08:55;44.4;33.2;20.2
74434;PMS7003;62867;52.038;29.256;2022-10-16T04:14:17;39.4;31.6;20.6
74434;PMS7003;62867;52.038;29.256;2022-10-16T04:19:29;39.2;31.6;19.4
74434;PMS7003;62867;52.038;29.256;2022-10-16T04:24:19;44;34.2;20.2
74434;PMS7003;62867;52.038;29.256;2022-10-16T04:29:31;46.4;34;20.2
74434;PMS7003;62867;52.038;29.256;2022-10-16T04:34:31;39;33;20.4
74434;PMS7003;62867;52.038;29.256;2022-10-16T04:38:43;41.8;33.8;21.3
74434;PMS7003;62867;52.038;29.256;2022-10-16T04:43:57;54.6;39.8;24.4
74434;PMS7003;62867;52.038;29.256;2022-10-16T04:49:31;61.8;45.8;27.2
74434;PMS7003;62867;52.038;29.256;2022-10-16T04:54:29;50.8;37.6;24.2
74434;PMS7003;62867;52.038;29.256;2022-10-16T04:58:45;46.6;37;22.8
74434;PMS7003;62867;52.038;29.256;2022-10-16T05:04:19;45.4;36;22.2
74434;PMS7003;62867;52.038;29.256;2022-10-16T05:09:19;45.2;35.6;21.4
74434;PMS7003;62867;52.038;29.256;2022-10-16T05:13:43;40.4;33.2;21
74434;PMS7003;62867;52.038;29.256;2022-10-16T05:18:43;47;35.6;22.2
74434;PMS7003;62867;52.038;29.256;2022-10-16T05:24:19;41;34.2;20.2
74434;PMS7003;62867;52.038;29.256;2022-10-16T05:28:57;44.2;35.4;22.2
74434;PMS7003;62867;52.038;29.256;2022-10-16T05:33:43;45.4;35;21.2
74434;PMS7003;62867;52.038;29.256;2022-10-16T05:39:07;43.8;34.4;20.4
74434;PMS7003;62867;52.038;29.256;2022-10-16T05:44:09;44;34.3;21.5
74434;PMS7003;62867;52.038;29.256;2022-10-16T05:49:19;41.8;33.6;19.8
74434;PMS7003;62867;52.038;29.256;2022-10-16T05:54:08;41.6;34.4;21.6
74434;PMS7003;62867;52.038;29.256;2022-10-16T05:59:09;39.2;33.8;20.8
74434;PMS7003;62867;52.038;29.256;2022-10-16T06:04:31;43.6;34.2;20.6
74434;PMS7003;62867;52.038;29.256;2022-10-16T06:09:25;44.4;34.6;20.8
74434;PMS7003;62867;52.038;29.256;2022-10-16T06:13:43;42.8;35;21.2
74434;PMS7003;62867;52.038;29.256;2022-10-16T06:18:43;44;33;20.6
74434;PMS7003;62867;52.038;29.256;2022-10-16T06:23:58;39.6;32.2;19.6
74434;PMS7003;62867;52.038;29.256;2022-10-16T06:29:19;42.4;34.4;20.6
74434;PMS7003;62867;52.038;29.256;2022-10-16T06:34:08;41.6;34.2;21.2
74434;PMS7003;62867;52.038;29.256;2022-10-16T06:39:29;42.6;32.4;19.2
74434;PMS7003;62867;52.038;29.256;2022-10-16T06:44:19;41;31.3;19
74434;PMS7003;62867;52.038;29.256;2022-10-16T06:49:29;38.6;31.6;18.8
74434;PMS7003;62867;52.038;29.256;2022-10-16T06:54:15;40.2;31.8;18.8
74434;PMS7003;62867;52.038;29.256;2022-10-16T06:59:31;34.4;28.4;17.8
74434;PMS7003;62867;52.038;29.256;2022-10-16T07:04:31;36.2;29;18.2
74434;PMS7003;62867;52.038;29.256;2022-10-16T07:08:44;37.8;29.2;18.6
74434;PMS7003;62867;52.038;29.256;2022-10-16T07:14:08;36.2;29.2;17.8
74434;PMS7003;62867;52.038;29.256;2022-10-16T07:18:44;37.8;29.6;18
74434;PMS7003;62867;52.038;29.256;2022-10-16T07:24:29;37.8;31.2;17.6
74434;PMS7003;62867;52.038;29.256;2022-10-16T07:29:19;35.6;28.4;16.8
74434;PMS7003;62867;52.038;29.256;2022-10-16T07:34:29;38;28.6;17.2
74434;PMS7003;62867;52.038;29.256;2022-10-16T07:39:17;32.2;27.2;15.6
74434;PMS7003;62867;52.038;29.256;2022-10-16T07:44:19;32.5;25.5;16
74434;PMS7003;62867;52.038;29.256;2022-10-16T07:49:08;31;23.8;14.4
74434;PMS7003;62867;52.038;29.256;2022-10-16T07:54:19;27.6;22.4;14.2
74434;PMS7003;62867;52.038;29.256;2022-10-16T07:58:57;30.8;22.6;14.2
74434;PMS7003;62867;52.038;29.256;2022-10-16T08:03:59;27;23.2;14.4
74434;PMS7003;62867;52.038;29.256;2022-10-16T08:08:55;28.2;23.6;14
74434;PMS7003;62867;52.038;29.256;2022-10-16T08:14:29;23.6;19.6;13.2
74434;PMS7003;62867;52.038;29.256;2022-10-16T08:19:31;25.8;21.2;13.2
74434;PMS7003;62867;52.038;29.256;2022-10-16T08:24:09;22.6;20.2;13
74434;PMS7003;62867;52.038;29.256;2022-10-16T08:28:43;27;22.6;14.2
74434;PMS7003;62867;52.038;29.256;2022-10-16T08:34:31;25;19.6;12.6
74434;PMS7003;62867;52.038;29.256;2022-10-16T08:39:29;24.2;19.4;12.8
74434;PMS7003;62867;52.038;29.256;2022-10-16T08:44:14;22.3;18.8;12.3
74434;PMS7003;62867;52.038;29.256;2022-10-16T08:48:56;24.6;20;12.4
74434;PMS7003;62867;52.038;29.256;2022-10-16T08:54:23;23.4;20;12.4
74434;PMS7003;62867;52.038;29.256;2022-10-16T08:58:44;25.6;19.8;13
74434;PMS7003;62867;52.038;29.256;2022-10-16T09:03:48;24.8;20.4;13
74434;PMS7003;62867;52.038;29.256;2022-10-16T09:08:55;24;19.8;12.8
74434;PMS7003;62867;52.038;29.256;2022-10-16T09:14:27;24.2;20;13.2
74434;PMS7003;62867;52.038;29.256;2022-10-16T09:19:24;23.2;19.4;13
74434;PMS7003;62867;52.038;29.256;2022-10-16T09:24:10;21.2;17.4;12
74434;PMS7003;62867;52.038;29.256;2022-10-16T09:29:31;17.8;15.6;9.8
74434;PMS7003;62867;52.038;29.256;2022-10-16T09:34:24;19.2;16.8;11.2
74434;PMS7003;62867;52.038;29.256;2022-10-16T09:39:23;19.8;15.2;9.6
74434;PMS7003;62867;52.038;29.256;2022-10-16T09:43:58;19.3;16;11
74434;PMS7003;62867;52.038;29.256;2022-10-16T09:48:44;17.8;16.2;10
74434;PMS7003;62867;52.038;29.256;2022-10-16T09:54:33;20.4;17.4;11.4
74434;PMS7003;62867;52.038;29.256;2022-10-16T09:59:20;18.4;14.4;10
74434;PMS7003;62867;52.038;29.256;2022-10-16T10:04:37;17.6;14.6;9.6
74434;PMS7003;62867;52.038;29.256;2022-10-16T10:09:20;15.8;13.8;9.4
74434;PMS7003;62867;52.038;29.256;2022-10-16T10:14:16;15.6;14.6;9.8
74434;PMS7003;62867;52.038;29.256;2022-10-16T10:19:12;16.8;15.8;10.2
74434;PMS7003;62867;52.038;29.256;2022-10-16T10:23:54;13.8;12.2;8.8
74434;PMS7003;62867;52.038;29.256;2022-10-16T10:29:00;16;13.6;9.6
74434;PMS7003;62867;52.038;29.256;2022-10-16T10:34:01;15.2;12.4;8.2
74434;PMS7003;62867;52.038;29.256;2022-10-16T10:38:46;16.2;13.4;7.6
74434;PMS7003;62867;52.038;29.256;2022-10-16T10:44:37;15.4;12.2;7.8
74434;PMS7003;62867;52.038;29.256;2022-10-16T10:49:37;13.5;11.8;7.5
74434;PMS7003;62867;52.038;29.256;2022-10-16T10:53:45;15.6;13;8.2
74434;PMS7003;62867;52.038;29.256;2022-10-16T10:59:15;13.4;11.8;7.4
74434;PMS7003;62867;52.038;29.256;2022-10-16T11:04:37;15.2;12.6;7.8
74434;PMS7003;62867;52.038;29.256;2022-10-16T11:09:32;15.2;12.8;8.6
74434;PMS7003;62867;52.038;29.256;2022-10-16T11:14:10;13.8;12.4;8.2
74434;PMS7003;62867;52.038;29.256;2022-10-16T11:18:47;13.4;11.2;7.4
74434;PMS7003;62867;52.038;29.256;2022-10-16T11:24:00;13.8;11;7
74434;PMS7003;62867;52.038;29.256;2022-10-16T11:29:00;17;13.8;9
74434;PMS7003;62867;52.038;29.256;2022-10-16T11:34:09;13.2;9.6;6.2
74434;PMS7003;62867;52.038;29.256;2022-10-16T11:39:03;14.8;11.2;7
74434;PMS7003;62867;52.038;29.256;2022-10-16T11:44:27;12.2;10.6;6.6
74434;PMS7003;62867;52.038;29.256;2022-10-16T11:49:22;13;11;6.5
74434;PMS7003;62867;52.038;29.256;2022-10-16T11:54:14;13.2;11.4;7.4
74434;PMS7003;62867;52.038;29.256;2022-10-16T11:59:37;21;17.2;10.8
74434;PMS7003;62867;52.038;29.256;2022-10-16T12:04:34;14.4;13;8.2
74434;PMS7003;62867;52.038;29.256;2022-10-16T12:09:32;13;11.2;7.4
74434;PMS7003;62867;52.038;29.256;2022-10-16T12:13:46;14.4;12;7.8
74434;PMS7003;62867;52.038;29.256;2022-10-16T12:18:46;14;11.8;8.4
74434;PMS7003;62867;52.038;29.256;2022-10-16T12:24:18;15.4;14;9.6
74434;PMS7003;62867;52.038;29.256;2022-10-16T12:29:36;14.8;11.6;7.2
74434;PMS7003;62867;52.038;29.256;2022-10-16T12:34:21;12.8;10.8;7
74434;PMS7003;62867;52.038;29.256;2022-10-16T12:39:22;20;16.4;10
74434;PMS7003;62867;52.038;29.256;2022-10-16T12:44:21;20;17;11.8
74434;PMS7003;62867;52.038;29.256;2022-10-16T12:49:05;17.3;14.3;9.8
74434;PMS7003;62867;52.038;29.256;2022-10-16T12:53:44;17.8;15.2;9.8
74434;PMS7003;62867;52.038;29.256;2022-10-16T12:59:13;15.8;13.6;8.4
74434;PMS7003;62867;52.038;29.256;2022-10-16T13:04:01;18;14.4;8.8
74434;PMS7003;62867;52.038;29.256;2022-10-16T13:09:12;20.8;18.4;10.6
74434;PMS7003;62867;52.038;29.256;2022-10-16T13:14:08;17.6;14.6;9
74434;PMS7003;62867;52.038;29.256;2022-10-16T13:19:33;19;16.6;10.8
74434;PMS7003;62867;52.038;29.256;2022-10-16T13:24:25;14.6;12.4;8.2
74434;PMS7003;62867;52.038;29.256;2022-10-16T13:28:44;12.4;11.4;7
74434;PMS7003;62867;52.038;29.256;2022-10-16T13:34:11;16;14;9.2
74434;PMS7003;62867;52.038;29.256;2022-10-16T13:39:36;19.8;16.4;10.4
74434;PMS7003;62867;52.038;29.256;2022-10-16T13:44:36;19.2;15;10.4
74434;PMS7003;62867;52.038;29.256;2022-10-16T13:48:55;14.5;12.3;8.8
74434;PMS7003;62867;52.038;29.256;2022-10-16T13:53:46;15.8;12.8;8
74434;PMS7003;62867;52.038;29.256;2022-10-16T13:58:46;14.4;11.8;7.6
74434;PMS7003;62867;52.038;29.256;2022-10-16T14:04:18;22.8;18.6;11.6
74434;PMS7003;62867;52.038;29.256;2022-10-16T14:09:06;17.2;11.8;7.6
74434;PMS7003;62867;52.038;29.256;2022-10-16T14:14:10;15.6;12.4;7.8
74434;PMS7003;62867;52.038;29.256;2022-10-16T14:19:15;16.6;12.4;8.6
74434;PMS7003;62867;52.038;29.256;2022-10-16T14:24:32;12.4;11.6;7
74434;PMS7003;62867;52.038;29.256;2022-10-16T14:29:18;15.6;13.6;8.2
74434;PMS7003;62867;52.038;29.256;2022-10-16T14:34:34;15.4;13.2;8.4
74434;PMS7003;62867;52.038;29.256;2022-10-16T14:39:34;14.8;11.6;8.2
74434;PMS7003;62867;52.038;29.256;2022-10-16T14:43:44;19;15;8.8
74434;PMS7003;62867;52.038;29.256;2022-10-16T14:49:01;21.8;16.8;9.8
74434;PMS7003;62867;52.038;29.256;2022-10-16T14:54:34;30;21.8;12
74434;PMS7003;62867;52.038;29.256;2022-10-16T14:59:35;15.6;13;7.4
74434;PMS7003;62867;52.038;29.256;2022-10-16T15:04:22;15.6;12.8;8.2
74434;PMS7003;62867;52.038;29.256;2022-10-16T15:09:22;15.2;12.4;8.6
74434;PMS7003;62867;52.038;29.256;2022-10-16T15:14:22;17.6;14;8.6
74434;PMS7003;62867;52.038;29.256;2022-10-16T15:19:12;20.8;16.6;9.8
74434;PMS7003;62867;52.038;29.256;2022-10-16T15:24:12;17.4;15;9.8
74434;PMS7003;62867;52.038;29.256;2022-10-16T15:29:20;16.8;13.5;8.8
74434;PMS7003;62867;52.038;29.256;2022-10-16T15:34:10;14.8;11.6;7.4
74434;PMS7003;62867;52.038;29.256;2022-10-16T15:39:00;16.2;13.8;9
74434;PMS7003;62867;52.038;29.256;2022-10-16T15:44:00;18.4;14.8;9
74434;PMS7003;62867;52.038;29.256;2022-10-16T15:49:34;25;19.8;11.4
74434;PMS7003;62867;52.038;29.256;2022-10-16T15:54:22;19.8;17;11
74434;PMS7003;62867;52.038;29.256;2022-10-16T15:59:10;23.6;18.6;11.4
74434;PMS7003;62867;52.038;29.256;2022-10-16T16:04:12;26.6;22.6;12.6
74434;PMS7003;62867;52.038;29.256;2022-10-16T16:09:34;26.6;21.6;13
74434;PMS7003;62867;52.038;29.256;2022-10-16T16:14:32;30.6;25.8;15.4
74434;PMS7003;62867;52.038;29.256;2022-10-16T16:19:10;31.8;27.6;17.2
74434;PMS7003;62867;52.038;29.256;2022-10-16T16:23:52;26.8;23.2;14.8
74434;PMS7003;62867;52.038;29.256;2022-10-16T16:28:58;19.5;15.3;9.5
74434;PMS7003;62867;52.038;29.256;2022-10-16T16:34:10;13.6;12;7.6
74434;PMS7003;62867;52.038;29.256;2022-10-16T16:39:08;14.4;11.8;7.4
74434;PMS7003;62867;52.038;29.256;2022-10-16T16:44:06;17.2;13.4;8.4
74434;PMS7003;62867;52.038;29.256;2022-10-16T16:49:24;18.8;15.3;9
74434;PMS7003;62867;52.038;29.256;2022-10-16T16:54:10;24.4;19;10.6
74434;PMS7003;62867;52.038;29.256;2022-10-16T16:59:22;34.6;25.2;14.2
74434;PMS7003;62867;52.038;29.256;2022-10-16T17:04:32;26.6;23.4;13.6
74434;PMS7003;62867;52.038;29.256;2022-10-16T17:09:20;20.8;17.8;11
74434;PMS7003;62867;52.038;29.256;2022-10-16T17:13:44;15;12.8;8
74434;PMS7003;62867;52.038;29.256;2022-10-16T17:18:58;14.4;11.4;6.8
74434;PMS7003;62867;52.038;29.256;2022-10-16T17:23:56;14;11.6;7.6
74434;PMS7003;62867;52.038;29.256;2022-10-16T17:29:30;11.8;10.8;7.8
74434;PMS7003;62867;52.038;29.256;2022-10-16T17:34:18;13.6;11.2;6.8
74434;PMS7003;62867;52.038;29.256;2022-10-16T17:39:18;13.6;12;7.6
74434;PMS7003;62867;52.038;29.256;2022-10-16T17:44:18;14.8;11.6;7.6
74434;PMS7003;62867;52.038;29.256;2022-10-16T17:49:20;15.8;12.2;7.6
74434;PMS7003;62867;52.038;29.256;2022-10-16T17:54:12;12.8;11.2;7.2
74434;PMS7003;62867;52.038;29.256;2022-10-16T17:59:18;12.4;10.8;7.2
74434;PMS7003;62867;52.038;29.256;2022-10-16T18:03:42;12.6;11;7.8
74434;PMS7003;62867;52.038;29.256;2022-10-16T18:08:42;15;12.2;8
74434;PMS7003;62867;52.038;29.256;2022-10-16T18:13:42;13.4;11.8;7
74434;PMS7003;62867;52.038;29.256;2022-10-16T18:19:32;12.2;10.6;7.2
74434;PMS7003;62867;52.038;29.256;2022-10-16T18:24:30;14.6;12;7.8
74434;PMS7003;62867;52.038;29.256;2022-10-16T18:29:08;14;11.3;7.3
74434;PMS7003;62867;52.038;29.256;2022-10-16T18:34:10;15;12.4;8
74434;PMS7003;62867;52.038;29.256;2022-10-16T18:39:32;15.2;12.2;8.4
74434;PMS7003;62867;52.038;29.256;2022-10-16T18:44:32;16.6;14.8;9.8
74434;PMS7003;62867;52.038;29.256;2022-10-16T18:48:42;21.2;15.6;9.2
74434;PMS7003;62867;52.038;29.256;2022-10-16T18:53:42;31.8;25.6;13.2
74434;PMS7003;62867;52.038;29.256;2022-10-16T18:58:42;24.8;18.8;10
74434;PMS7003;62867;52.038;29.256;2022-10-16T19:03:42;20.4;15.6;9.4
74434;PMS7003;62867;52.038;29.256;2022-10-16T19:09:06;19.2;15.2;9.8
74434;PMS7003;62867;52.038;29.256;2022-10-16T19:14:06;21.8;15.8;9.2
74434;PMS7003;62867;52.038;29.256;2022-10-16T19:19:20;19.4;13.8;7.8
74434;PMS7003;62867;52.038;29.256;2022-10-16T19:24:20;15.8;12.2;7.8
74434;PMS7003;62867;52.038;29.256;2022-10-16T19:28:42;18.8;13.3;8
74434;PMS7003;62867;52.038;29.256;2022-10-16T19:34:34;23.4;17.2;9.6
74434;PMS7003;62867;52.038;29.256;2022-10-16T19:39:18;26.6;19.2;10
74434;PMS7003;62867;52.038;29.256;2022-10-16T19:43:54;24.6;18.6;10.2
74434;PMS7003;62867;52.038;29.256;2022-10-16T19:48:57;19.2;15;9.4
74434;PMS7003;62867;52.038;29.256;2022-10-16T19:53:42;13.4;10.6;7.2
74434;PMS7003;62867;52.038;29.256;2022-10-16T19:59:34;12.8;11.4;7
74434;PMS7003;62867;52.038;29.256;2022-10-16T20:04:20;14.4;10.6;7.2
74434;PMS7003;62867;52.038;29.256;2022-10-16T20:09:31;13.4;12;7.4
74434;PMS7003;62867;52.038;29.256;2022-10-16T20:14:20;13.8;11.2;8
74434;PMS7003;62867;52.038;29.256;2022-10-16T20:19:20;15.2;13;8.2
74434;PMS7003;62867;52.038;29.256;2022-10-16T20:23:42;15;11.8;7.8
74434;PMS7003;62867;52.038;29.256;2022-10-16T20:29:18;13.5;12;8.3
74434;PMS7003;62867;52.038;29.256;2022-10-16T20:34:00;17.6;13.6;8.4
74434;PMS7003;62867;52.038;29.256;2022-10-16T20:38:54;16;13;8.6
74434;PMS7003;62867;52.038;29.256;2022-10-16T20:43:58;16.4;12.2;8
74434;PMS7003;62867;52.038;29.256;2022-10-16T20:49:36;16.4;14;8.4
74434;PMS7003;62867;52.038;29.256;2022-10-16T20:54:24;16.2;12.8;8
74434;PMS7003;62867;52.038;29.256;2022-10-16T20:59:10;16.6;14.2;8.4
74434;PMS7003;62867;52.038;29.256;2022-10-16T21:03:54;18.6;13.4;8.8
74434;PMS7003;62867;52.038;29.256;2022-10-16T21:09:34;15.6;13;8.4
74434;PMS7003;62867;52.038;29.256;2022-10-16T21:14:36;17.6;14.4;9.4
74434;PMS7003;62867;52.038;29.256;2022-10-16T21:19:36;15;12.4;8.2
74434;PMS7003;62867;52.038;29.256;2022-10-16T21:24:08;20;14.4;8.6
74434;PMS7003;62867;52.038;29.256;2022-10-16T21:28:58;16.6;12.8;7.8
74434;PMS7003;62867;52.038;29.256;2022-10-16T21:33:58;16.3;12.3;8
74434;PMS7003;62867;52.038;29.256;2022-10-16T21:39:20;17.8;14;8.4
74434;PMS7003;62867;52.038;29.256;2022-10-16T21:44:08;17.6;14.4;8.8
74434;PMS7003;62867;52.038;29.256;2022-10-16T21:49:10;15.4;12.2;7.8
74434;PMS7003;62867;52.038;29.256;2022-10-16T21:54:13;18.6;14.2;9
74434;PMS7003;62867;52.038;29.256;2022-10-16T21:59:36;16.2;12.8;7.8
74434;PMS7003;62867;52.038;29.256;2022-10-16T22:04:12;16.6;13;8.2
74434;PMS7003;62867;52.038;29.256;2022-10-16T22:09:34;17.6;13;7.8
74434;PMS7003;62867;52.038;29.256;2022-10-16T22:14:34;16.6;12.8;8
74434;PMS7003;62867;52.038;29.256;2022-10-16T22:19:00;18.4;14.4;8.4
74434;PMS7003;62867;52.038;29.256;2022-10-16T22:23:56;17;14;8.4
74434;PMS7003;62867;52.038;29.256;2022-10-16T22:29:22;18.8;14.4;8.8
74434;PMS7003;62867;52.038;29.256;2022-10-16T22:34:34;15.5;13.5;8.5
74434;PMS7003;62867;52.038;29.256;2022-10-16T22:39:16;16.8;13.2;8.2
74434;PMS7003;62867;52.038;29.256;2022-10-16T22:44:20;16.8;14.8;8.8
74434;PMS7003;62867;52.038;29.256;2022-10-16T22:49:20;17.8;14.4;8.8
74434;PMS7003;62867;52.038;29.256;2022-10-16T22:54:10;16.2;13.4;8
74434;PMS7003;62867;52.038;29.256;2022-10-16T22:59:08;18.4;13.4;8
74434;PMS7003;62867;52.038;29.256;2022-10-16T23:04:03;17.6;14.4;8.6
74434;PMS7003;62867;52.038;29.256;2022-10-16T23:08:58;20.6;17;9.2
74434;PMS7003;62867;52.038;29.256;2022-10-16T23:13:58;18;16.4;9.6
74434;PMS7003;62867;52.038;29.256;2022-10-16T23:18:44;18.6;15.8;10
74434;PMS7003;62867;52.038;29.256;2022-10-16T23:24:26;19.4;16;9.6
74434;PMS7003;62867;52.038;29.256;2022-10-16T23:29:20;18.6;16.2;9.6
74434;PMS7003;62867;52.038;29.256;2022-10-16T23:34:08;18;15.8;10.3
74434;PMS7003;62867;52.038;29.256;2022-10-16T23:38:58;18.8;15.6;9.2
74434;PMS7003;62867;52.038;29.256;2022-10-16T23:44:26;20.6;16.6;9.6
74434;PMS7003;62867;52.038;29.256;2022-10-16T23:49:28;18.2;15.8;10.2
74434;PMS7003;62867;52.038;29.256;2022-10-16T23:53:58;20;15.6;10
74434;PMS7003;62867;52.038;29.256;2022-10-16T23:59:02;20.6;16.6;9.6
